Tahlequah, OK

8:16 AM CST on February 20, 2017 (GMT -0600)
Tahlequah Municipal | | Change Station

Elev 873 ft 35.93 °N, 95.00 °W | Updated 21 minutes ago

Mostly Cloudy
Mostly Cloudy
57 °F
Feels Like 57 °F
N
6
Wind Variable Wind from ESE

Today
High -- | Low -- °F
--% Chance of Precip.
Yesterday
High -- | Low -- °F
Precip. -- in
Pressure 29.92 in
Visibility 4.0 miles
Clouds Mostly Cloudy 500 ft
Mostly Cloudy 1000 ft
Dew Point 55 °F
Humidity 94%
Rainfall 0.65 in
Snow Depth Not available.
7:01 AM 6:06 PM
Waning Crescent, 34% visible
METAR KTQH 201355Z AUTO 12005KT 4SM BR BKN005 BKN010 14/13 A2992 RMK AO2 P0001
Pressure 29.92 in
Visibility 4.0 miles
Clouds Mostly Cloudy 500 ft
Mostly Cloudy 1000 ft
Dew Point 55 °F
Humidity 94%
Rainfall 0.65 in
Snow Depth Not available.
7:01 AM 6:06 PM
Waning Crescent, 34% visible
METAR KTQH 201355Z AUTO 12005KT 4SM BR BKN005 BKN010 14/13 A2992 RMK AO2 P0001

Get Your Daily Forecast Email!

Thanks for signing up!

Be on the lookout for a verification email in your inbox.

You'll start receiving the daily forecast at 8 AM.

×

10-Day Weather Forecast

Almanac

Astronomy

Feb. 20, 2017 Rise Set
Actual Time
Civil Twilight
Nautical Twilight
Astronomical Twilight
Moon
Length of Visible Light
Length of Day
Tomorrow will be .
, % of the Moon is Illuminated

Today's Extremes

State Highs State Lows

Community

WunderPhotos

Upload Photos

1,962,540 photos uploaded!

WunderBlog® & News

Nearby

Air Quality

  Air Quality AQ Index Pollutant
Not available.

Snow Depth

Station Depth Elevation

Earthquake Activity

City Distance Mag. Time & Date
Minimum magnitude displayed is 2.5.

Coastal Water Temperatures

Place Temperature

Stations

Nearby Weather Stations

Station Location Temp. Windchill Dew Point Humidity Wind Precip. Elev Updated Type
                   

Watches & Warnings

There are currently no watches in effect.